createdAt,value
2019-01-04T00:00:24.843Z,15.93
2019-01-04T00:02:53.751Z,13.97
2019-01-04T00:05:22.542Z,15.10
2019-01-04T00:07:51.420Z,12.63
2019-01-04T00:10:20.294Z,16.60
2019-01-04T00:12:49.118Z,12.37
2019-01-04T00:15:17.889Z,16.43
2019-01-04T00:17:46.792Z,16.13
2019-01-04T00:20:15.656Z,15.40
2019-01-04T00:22:44.554Z,15.90
2019-01-04T00:25:13.418Z,14.43
2019-01-04T00:27:42.374Z,12.70
2019-01-04T00:30:12.217Z,15.87
2019-01-04T00:32:41.231Z,16.07
2019-01-04T00:35:10.204Z,14.80
2019-01-04T00:37:39.092Z,17.80
2019-01-04T00:40:08.562Z,15.67
2019-01-04T00:42:37.534Z,12.50
2019-01-04T00:45:06.968Z,12.97
2019-01-04T00:47:35.848Z,12.73
2019-01-04T00:50:05.903Z,17.63
2019-01-04T00:52:34.850Z,17.57
2019-01-04T00:55:18.861Z,14.53
2019-01-04T00:58:20.453Z,15.87
2019-01-04T01:01:31.580Z,17.47
2019-01-04T01:04:36.147Z,12.30
2019-01-04T01:07:32.452Z,13.27
2019-01-04T01:10:35.763Z,15.47
2019-01-04T01:13:31.302Z,16.07
2019-01-04T01:16:53.103Z,19.70
2019-01-04T01:19:58.146Z,16.57
2019-01-04T01:23:15.540Z,16.13
2019-01-04T01:26:28.273Z,18.03
2019-01-04T01:29:31.443Z,18.20
2019-01-04T01:32:37.687Z,20.13
2019-01-04T01:35:47.855Z,17.17
2019-01-04T01:38:53.653Z,19.30
2019-01-04T01:42:05.300Z,21.77
2019-01-04T01:45:30.260Z,19.20
2019-01-04T01:48:43.005Z,15.90
2019-01-04T01:51:34.726Z,21.00
2019-01-04T01:54:03.552Z,16.77
2019-01-04T01:56:32.358Z,17.00
2019-01-04T01:59:01.162Z,19.90
2019-01-04T02:01:29.983Z,24.83
2019-01-04T02:03:58.783Z,17.70
2019-01-04T02:06:27.609Z,19.17
2019-01-04T02:08:56.406Z,21.23
2019-01-04T02:11:25.223Z,20.57
2019-01-04T02:13:54.010Z,21.23
2019-01-04T02:16:22.817Z,19.83
2019-01-04T02:18:51.602Z,19.73
2019-01-04T02:21:20.501Z,23.20
2019-01-04T02:23:49.319Z,25.47
2019-01-04T02:26:18.160Z,21.30
2019-01-04T02:28:46.942Z,23.70
2019-01-04T02:31:15.746Z,19.20
2019-01-04T02:33:44.541Z,26.03
2019-01-04T02:36:13.371Z,28.57
2019-01-04T02:38:42.169Z,28.77
2019-01-04T02:41:11.011Z,30.27
2019-01-04T02:43:39.898Z,31.23
2019-01-04T02:46:09.057Z,31.23
2019-01-04T02:48:37.851Z,27.30
2019-01-04T02:51:06.710Z,25.00
2019-01-04T02:53:49.855Z,23.77
2019-01-04T02:56:18.666Z,23.23
2019-01-04T02:58:47.454Z,24.40
2019-01-04T03:01:16.249Z,25.73
2019-01-04T03:03:45.066Z,22.17
2019-01-04T03:06:13.938Z,26.00
2019-01-04T03:08:42.828Z,19.90
2019-01-04T03:11:11.630Z,24.23
2019-01-04T03:13:40.432Z,20.70
2019-01-04T03:16:09.219Z,21.43
2019-01-04T03:18:38.020Z,18.70
2019-01-04T03:21:06.802Z,17.27
2019-01-04T03:23:35.714Z,20.70
2019-01-04T03:26:04.575Z,14.97
2019-01-04T03:28:33.382Z,19.83
2019-01-04T03:31:02.166Z,15.07
2019-01-04T03:33:30.971Z,14.20
2019-01-04T03:35:59.763Z,17.87
2019-01-04T03:38:28.575Z,21.93
2019-01-04T03:40:57.447Z,16.83
2019-01-04T03:43:26.285Z,16.93
2019-01-04T03:45:55.059Z,16.40
2019-01-04T03:48:23.855Z,17.40
2019-01-04T03:50:52.807Z,15.17
2019-01-04T03:53:21.584Z,15.17
2019-01-04T03:55:50.480Z,14.33
2019-01-04T03:58:19.265Z,13.83
2019-01-04T04:00:48.151Z,15.17
2019-01-04T04:03:16.955Z,17.17
2019-01-04T04:05:45.826Z,15.17
2019-01-04T04:08:14.758Z,12.80
2019-01-04T04:10:43.590Z,17.17
2019-01-04T04:13:12.400Z,18.20
2019-01-04T04:15:41.211Z,13.67
2019-01-04T04:18:09.996Z,13.97
2019-01-04T04:20:38.783Z,13.07
2019-01-04T04:23:07.595Z,18.47
2019-01-04T04:25:36.387Z,19.20
2019-01-04T04:28:05.250Z,12.43
2019-01-04T04:30:34.059Z,14.50
2019-01-04T04:33:02.862Z,13.00
2019-01-04T04:35:31.674Z,12.30
2019-01-04T04:38:00.476Z,14.10
2019-01-04T04:40:30.713Z,13.07
2019-01-04T04:42:59.750Z,17.07
2019-01-04T04:45:28.535Z,23.07
2019-01-04T04:47:57.341Z,14.57
2019-01-04T04:50:26.131Z,14.87
2019-01-04T04:52:55.007Z,17.93
2019-01-04T04:55:23.864Z,20.17
2019-01-04T04:57:52.659Z,14.47
2019-01-04T05:00:21.438Z,15.80
2019-01-04T05:02:50.259Z,17.40
2019-01-04T05:05:19.056Z,19.90
2019-01-04T05:07:47.853Z,13.97
2019-01-04T05:10:16.719Z,14.07
2019-01-04T05:12:45.531Z,17.67
2019-01-04T05:15:14.304Z,13.97
2019-01-04T05:17:43.106Z,15.07
2019-01-04T05:20:11.891Z,12.90
2019-01-04T05:22:40.705Z,14.57
2019-01-04T05:25:09.515Z,13.43
2019-01-04T05:27:38.338Z,14.20
2019-01-04T05:30:07.279Z,15.17
2019-01-04T05:32:36.070Z,13.27
2019-01-04T05:35:05.050Z,16.70
2019-01-04T05:37:33.854Z,16.47
2019-01-04T05:40:02.659Z,15.77
2019-01-04T05:42:31.456Z,13.30
2019-01-04T05:45:00.266Z,13.20
2019-01-04T05:47:29.053Z,14.13
2019-01-04T05:49:57.871Z,17.23
2019-01-04T05:52:26.658Z,15.03
2019-01-04T05:54:55.547Z,15.47
2019-01-04T05:57:24.343Z,14.97
2019-01-04T05:59:53.219Z,13.53
2019-01-04T06:02:22.008Z,15.77
2019-01-04T06:04:50.807Z,14.53
2019-01-04T06:07:19.596Z,14.93
2019-01-04T06:09:48.395Z,17.53
2019-01-04T06:12:17.197Z,16.77
2019-01-04T06:14:45.989Z,15.73
2019-01-04T06:17:14.866Z,15.27
2019-01-04T06:19:43.679Z,19.03
2019-01-04T06:22:12.475Z,20.23
2019-01-04T06:24:41.302Z,18.67
2019-01-04T06:27:10.102Z,21.10
2019-01-04T06:29:38.909Z,23.03
2019-01-04T06:32:07.699Z,19.03
2019-01-04T06:34:36.510Z,20.10
2019-01-04T06:37:05.323Z,20.00
2019-01-04T06:39:34.134Z,19.97
2019-01-04T06:42:02.930Z,22.87
2019-01-04T06:44:31.741Z,20.83
2019-01-04T06:47:31.879Z,23.93
2019-01-04T06:50:00.686Z,22.63
2019-01-04T06:52:29.486Z,19.17
2019-01-04T06:55:33.754Z,20.47
2019-01-04T06:58:02.589Z,21.30
2019-01-04T07:00:31.452Z,19.73
2019-01-04T07:03:00.248Z,22.37
2019-01-04T07:05:29.062Z,23.67
2019-01-04T07:07:57.850Z,19.70
2019-01-04T07:10:26.655Z,26.33
2019-01-04T07:12:55.515Z,23.07
2019-01-04T07:15:24.527Z,22.57
2019-01-04T07:17:53.374Z,23.03
2019-01-04T07:20:22.258Z,21.77
2019-01-04T07:22:51.058Z,22.53
2019-01-04T07:25:19.910Z,22.63
2019-01-04T07:27:48.726Z,27.63
2019-01-04T07:30:17.528Z,24.67
2019-01-04T07:32:46.336Z,24.90
2019-01-04T07:35:15.130Z,27.83
2019-01-04T07:37:44.062Z,23.67
2019-01-04T07:40:13.039Z,23.13
2019-01-04T07:42:41.848Z,26.60
2019-01-04T07:45:15.133Z,23.07
2019-01-04T07:47:44.122Z,24.97
2019-01-04T07:50:13.017Z,28.20
2019-01-04T07:52:41.859Z,26.50
2019-01-04T07:55:12.075Z,27.67
2019-01-04T07:57:42.462Z,25.70
2019-01-04T08:00:15.498Z,28.07
2019-01-04T08:02:48.350Z,26.47
2019-01-04T08:05:23.665Z,26.50
2019-01-04T08:07:54.372Z,28.67
2019-01-04T08:10:24.242Z,25.80
2019-01-04T08:12:54.650Z,26.40
2019-01-04T08:15:24.607Z,26.80
2019-01-04T08:17:54.060Z,26.57
2019-01-04T08:20:23.144Z,24.80
2019-01-04T08:22:52.379Z,27.93
2019-01-04T08:25:21.174Z,24.73
2019-01-04T08:27:49.974Z,23.93
2019-01-04T08:30:19.896Z,25.47
2019-01-04T08:32:48.703Z,25.67
2019-01-04T08:35:17.486Z,22.30
2019-01-04T08:37:46.299Z,24.77
2019-01-04T08:40:15.371Z,22.23
2019-01-04T08:42:44.331Z,21.07
2019-01-04T08:45:14.392Z,23.63
2019-01-04T08:47:43.274Z,18.07
2019-01-04T08:50:13.157Z,20.37
2019-01-04T08:52:42.045Z,18.27
2019-01-04T08:55:13.631Z,21.27
2019-01-04T08:57:42.475Z,19.53
2019-01-04T09:00:13.142Z,18.23
2019-01-04T09:02:42.021Z,21.40
2019-01-04T09:05:10.928Z,17.40
2019-01-04T09:07:39.801Z,16.37
2019-01-04T09:10:09.557Z,14.10
2019-01-04T09:12:38.503Z,13.97
2019-01-04T09:15:09.895Z,13.87
2019-01-04T09:17:38.736Z,14.10
2019-01-04T09:20:10.034Z,14.43
2019-01-04T09:22:39.209Z,13.43
2019-01-04T09:25:09.971Z,12.23
2019-01-04T09:27:38.918Z,12.20
2019-01-04T09:30:13.219Z,11.27
2019-01-04T09:32:42.088Z,11.80
2019-01-04T09:35:13.030Z,13.60
2019-01-04T09:37:41.798Z,13.63
2019-01-04T09:40:11.931Z,12.80
2019-01-04T09:42:43.589Z,14.67
2019-01-04T09:45:21.853Z,11.47
2019-01-04T09:47:50.943Z,13.53
2019-01-04T09:50:20.322Z,10.97
2019-01-04T09:52:49.584Z,10.93
2019-01-04T09:55:25.312Z,11.57
2019-01-04T09:57:54.993Z,10.03
2019-01-04T10:00:24.412Z,8.57
2019-01-04T10:02:56.118Z,10.30
2019-01-04T10:05:41.830Z,10.80
2019-01-04T10:08:14.171Z,11.57
2019-01-04T10:10:44.112Z,10.23
2019-01-04T10:13:13.727Z,9.33
2019-01-04T10:15:43.459Z,10.80
2019-01-04T10:18:12.971Z,11.50
2019-01-04T10:20:42.157Z,12.17
2019-01-04T10:23:11.507Z,10.03
2019-01-04T10:25:40.738Z,10.53
2019-01-04T10:28:10.022Z,11.37
2019-01-04T10:30:39.239Z,14.27
2019-01-04T10:33:08.442Z,9.67
2019-01-04T10:35:37.506Z,9.67
2019-01-04T10:38:06.684Z,10.03
2019-01-04T10:40:35.784Z,11.53
2019-01-04T10:43:04.954Z,9.67
2019-01-04T10:45:34.423Z,8.73
2019-01-04T10:48:03.580Z,9.23
2019-01-04T10:50:32.796Z,9.27
2019-01-04T10:53:02.007Z,7.60
2019-01-04T10:55:31.155Z,9.37
2019-01-04T10:58:00.474Z,9.83
2019-01-04T11:00:29.842Z,13.47
2019-01-04T11:02:58.981Z,8.67
2019-01-04T11:05:28.222Z,8.20
2019-01-04T11:07:57.319Z,6.87
2019-01-04T11:10:26.472Z,6.97
2019-01-04T11:12:55.604Z,8.77
2019-01-04T11:15:24.796Z,8.67
2019-01-04T11:17:54.096Z,9.60
2019-01-04T11:20:48.602Z,9.00
2019-01-04T11:24:26.490Z,9.10
2019-01-04T11:27:08.228Z,11.40
2019-01-04T11:30:06.745Z,8.63
2019-01-04T11:33:00.727Z,12.73
2019-01-04T11:36:12.624Z,11.83
2019-01-04T11:39:19.359Z,9.93
2019-01-04T11:42:20.846Z,10.23
2019-01-04T11:45:22.694Z,10.83
2019-01-04T11:48:08.157Z,14.93
2019-01-04T11:50:59.517Z,10.77
2019-01-04T11:53:28.682Z,13.33
2019-01-04T11:55:57.566Z,12.90
2019-01-04T11:58:29.648Z,13.47
2019-01-04T12:00:58.637Z,13.07
2019-01-04T12:03:27.470Z,13.37
2019-01-04T12:05:56.266Z,15.43
2019-01-04T12:08:25.139Z,13.83
2019-01-04T12:10:53.943Z,17.83
2019-01-04T12:13:22.777Z,17.17
2019-01-04T12:15:51.640Z,13.53
2019-01-04T12:18:20.450Z,15.60
2019-01-04T12:20:49.257Z,12.93
2019-01-04T12:23:18.175Z,13.23
2019-01-04T12:25:46.978Z,13.67
2019-01-04T12:28:15.833Z,16.67
2019-01-04T12:30:44.648Z,14.37
2019-01-04T12:33:13.442Z,14.40
2019-01-04T12:35:42.262Z,15.20
2019-01-04T12:38:11.129Z,13.50
2019-01-04T12:40:39.958Z,14.47
2019-01-04T12:43:08.780Z,15.50
2019-01-04T12:45:37.584Z,16.97
2019-01-04T12:48:06.394Z,14.70
2019-01-04T12:50:35.194Z,15.67
2019-01-04T12:53:04.083Z,15.40
2019-01-04T12:55:34.054Z,17.57
2019-01-04T12:58:03.051Z,14.37
2019-01-04T13:00:31.892Z,19.13
2019-01-04T13:03:00.768Z,19.63
2019-01-04T13:05:30.794Z,16.23
2019-01-04T13:07:59.706Z,18.20
2019-01-04T13:10:28.590Z,20.40
2019-01-04T13:12:58.894Z,16.77
2019-01-04T13:15:28.959Z,21.10
2019-01-04T13:17:58.870Z,24.50
2019-01-04T13:20:27.828Z,20.23
2019-01-04T13:22:56.746Z,18.97
2019-01-04T13:25:25.631Z,20.63
2019-01-04T13:27:54.495Z,21.17
2019-01-04T13:30:23.487Z,20.10
2019-01-04T13:32:52.362Z,24.13
2019-01-04T13:35:21.314Z,23.20
2019-01-04T13:37:50.137Z,24.83
2019-01-04T13:40:19.135Z,22.77
2019-01-04T13:42:48.037Z,22.50
2019-01-04T13:45:16.944Z,25.83
2019-01-04T13:47:45.818Z,19.80
2019-01-04T13:50:14.723Z,23.40
2019-01-04T13:52:44.733Z,23.13
2019-01-04T13:55:13.722Z,20.73
2019-01-04T13:57:43.275Z,22.67
2019-01-04T14:00:13.345Z,23.97
2019-01-04T14:02:42.224Z,28.23
2019-01-04T14:05:11.114Z,26.80
2019-01-04T14:07:41.028Z,18.87
2019-01-04T14:10:12.058Z,26.80
2019-01-04T14:12:40.987Z,27.73
2019-01-04T14:15:09.993Z,23.33
2019-01-04T14:17:38.842Z,24.13
2019-01-04T14:20:08.382Z,19.63
2019-01-04T14:22:37.286Z,24.50
2019-01-04T14:25:08.119Z,21.50
2019-01-04T14:27:37.081Z,25.73
2019-01-04T14:30:07.636Z,20.27
2019-01-04T14:32:36.595Z,20.30
2019-01-04T14:35:05.871Z,19.43
2019-01-04T14:37:34.886Z,22.70
2019-01-04T14:40:04.524Z,19.40
2019-01-04T14:42:33.499Z,19.10
2019-01-04T14:45:05.335Z,21.63
2019-01-04T14:47:34.218Z,26.37
2019-01-04T14:50:03.427Z,18.67
2019-01-04T14:52:32.319Z,24.30
2019-01-04T14:55:01.203Z,14.30
2019-01-04T14:57:30.088Z,19.80
2019-01-04T14:59:59.006Z,22.13
2019-01-04T15:02:27.867Z,21.67
2019-01-04T15:04:56.790Z,23.60
2019-01-04T15:07:25.637Z,16.03
2019-01-04T15:09:54.574Z,26.30
2019-01-04T15:12:23.424Z,23.50
2019-01-04T15:14:52.319Z,20.00
2019-01-04T15:17:22.227Z,23.63
2019-01-04T15:19:51.293Z,19.60
2019-01-04T15:22:29.328Z,26.17
2019-01-04T15:25:06.187Z,20.93
2019-01-04T15:27:35.401Z,19.67
2019-01-04T15:30:05.174Z,15.87
2019-01-04T15:32:34.108Z,22.90
2019-01-04T15:35:03.145Z,19.70
2019-01-04T15:37:32.338Z,23.83
2019-01-04T15:40:01.334Z,16.93
2019-01-04T15:42:30.301Z,17.53
2019-01-04T15:44:59.174Z,20.87
2019-01-04T15:47:28.047Z,20.47
2019-01-04T15:49:57.046Z,17.37
2019-01-04T15:52:26.283Z,18.97
2019-01-04T15:54:55.118Z,17.20
2019-01-04T15:57:24.111Z,20.33
2019-01-04T15:59:53.018Z,23.53
2019-01-04T16:02:23.031Z,19.40
2019-01-04T16:04:51.999Z,15.13
2019-01-04T16:07:21.005Z,17.43
2019-01-04T16:09:49.979Z,18.70
2019-01-04T16:12:18.994Z,20.87
2019-01-04T16:14:47.970Z,15.23
2019-01-04T16:17:16.990Z,18.10
2019-01-04T16:19:46.999Z,21.97
2019-01-04T16:22:17.033Z,22.87
2019-01-04T16:24:46.067Z,19.00
2019-01-04T16:27:15.415Z,21.27
2019-01-04T16:29:44.369Z,24.87
2019-01-04T16:32:13.337Z,19.00
2019-01-04T16:34:42.255Z,20.13
2019-01-04T16:37:11.207Z,18.90
2019-01-04T16:39:40.916Z,19.33
2019-01-04T16:42:10.974Z,21.67
2019-01-04T16:44:39.886Z,21.87
2019-01-04T16:47:09.929Z,24.57
2019-01-04T16:49:39.001Z,28.90
2019-01-04T16:52:08.180Z,22.57
2019-01-04T16:54:37.368Z,18.30
2019-01-04T16:57:06.634Z,21.87
2019-01-04T16:59:35.778Z,20.47
2019-01-04T17:02:05.371Z,25.07
2019-01-04T17:04:38.509Z,21.63
2019-01-04T17:07:07.567Z,25.30
2019-01-04T17:09:36.676Z,38.47
2019-01-04T17:12:05.687Z,23.90
2019-01-04T17:14:34.530Z,29.47
2019-01-04T17:17:03.498Z,25.33
2019-01-04T17:19:32.610Z,29.03
2019-01-04T17:22:01.488Z,20.63
2019-01-04T17:24:30.386Z,19.47
2019-01-04T17:27:00.191Z,25.47
2019-01-04T17:29:30.222Z,24.57
2019-01-04T17:31:59.210Z,23.23
2019-01-04T17:34:29.338Z,25.57
2019-01-04T17:36:58.223Z,19.13
2019-01-04T17:39:27.176Z,21.50
2019-01-04T17:42:03.564Z,17.57
2019-01-04T17:44:32.481Z,26.07
2019-01-04T17:47:01.354Z,22.20
2019-01-04T17:49:31.386Z,25.33
2019-01-04T17:52:00.273Z,27.77
2019-01-04T17:54:29.158Z,23.27
2019-01-04T17:56:58.142Z,24.63
2019-01-04T17:59:29.213Z,23.53
2019-01-04T18:01:58.166Z,25.90
2019-01-04T18:04:27.147Z,23.90
2019-01-04T18:06:56.259Z,21.20
2019-01-04T18:09:25.271Z,25.80
2019-01-04T18:11:54.274Z,21.40
2019-01-04T18:14:23.135Z,23.47
2019-01-04T18:16:52.185Z,20.27
2019-01-04T18:19:21.194Z,26.53
2019-01-04T18:21:50.145Z,23.30
2019-01-04T18:24:19.045Z,23.83
2019-01-04T18:26:48.074Z,20.23
2019-01-04T18:29:17.033Z,27.77
2019-01-04T18:31:46.057Z,22.90
2019-01-04T18:34:15.015Z,19.70
2019-01-04T18:36:45.019Z,16.13
2019-01-04T18:39:15.978Z,18.83
2019-01-04T18:41:45.005Z,19.70
2019-01-04T18:44:13.956Z,25.50
2019-01-04T18:46:45.171Z,22.60
2019-01-04T18:49:14.082Z,24.80
2019-01-04T18:51:43.118Z,20.60
2019-01-04T18:54:12.103Z,20.03
2019-01-04T18:56:41.211Z,29.03
2019-01-04T18:59:10.206Z,23.80
2019-01-04T19:01:39.098Z,23.40
2019-01-04T19:04:09.167Z,22.50
2019-01-04T19:06:39.158Z,18.80
2019-01-04T19:09:08.894Z,23.47
2019-01-04T19:11:37.898Z,25.17
2019-01-04T19:14:07.859Z,19.70
2019-01-04T19:16:38.013Z,22.80
2019-01-04T19:19:07.008Z,27.00
2019-01-04T19:21:36.019Z,22.97
2019-01-04T19:24:05.050Z,22.13
2019-01-04T19:26:34.101Z,20.37
2019-01-04T19:29:03.130Z,25.37
2019-01-04T19:31:32.356Z,31.07
2019-01-04T19:34:01.454Z,27.33
2019-01-04T19:36:30.296Z,27.93
2019-01-04T19:38:59.485Z,21.13
2019-01-04T19:41:28.731Z,23.27
2019-01-04T19:43:57.762Z,23.10
2019-01-04T19:46:26.735Z,23.37
2019-01-04T19:48:55.841Z,33.17
2019-01-04T19:51:24.874Z,22.67
2019-01-04T19:53:53.896Z,22.67
2019-01-04T19:56:22.802Z,22.63
2019-01-04T19:58:52.435Z,21.83
2019-01-04T20:01:21.554Z,22.57
2019-01-04T20:03:50.502Z,25.90
2019-01-04T20:07:21.620Z,23.47
2019-01-04T20:10:44.839Z,25.97
2019-01-04T20:14:07.792Z,21.33
2019-01-04T20:16:59.152Z,35.83
2019-01-04T20:19:47.546Z,23.17
2019-01-04T20:22:47.965Z,29.57
2019-01-04T20:25:30.856Z,26.13
2019-01-04T20:28:18.845Z,25.67
2019-01-04T20:31:24.806Z,29.37
2019-01-04T20:34:09.647Z,30.80
2019-01-04T20:37:10.387Z,19.90
2019-01-04T20:40:01.263Z,25.70
2019-01-04T20:42:53.491Z,21.50
2019-01-04T20:45:34.189Z,23.73
2019-01-04T20:48:15.622Z,27.70
2019-01-04T20:51:03.493Z,22.73
2019-01-04T20:53:51.366Z,25.07
2019-01-04T20:56:43.956Z,26.90
2019-01-04T20:59:30.836Z,22.27
2019-01-04T21:02:28.138Z,46.50
2019-01-04T21:05:11.804Z,20.90
2019-01-04T21:08:00.142Z,17.83
2019-01-04T21:10:58.094Z,20.27
2019-01-04T21:13:56.926Z,20.80
2019-01-04T21:16:57.090Z,18.57
2019-01-04T21:19:44.750Z,22.53
2019-01-04T21:22:51.310Z,19.73
2019-01-04T21:25:42.296Z,22.10
2019-01-04T21:28:30.973Z,24.67
2019-01-04T21:31:17.799Z,20.30
2019-01-04T21:34:08.795Z,16.93
2019-01-04T21:37:08.725Z,25.47
2019-01-04T21:39:55.668Z,23.17
2019-01-04T21:42:53.030Z,27.77
2019-01-04T21:45:59.111Z,31.23
2019-01-04T21:48:47.063Z,25.57
2019-01-04T21:51:47.683Z,23.40
2019-01-04T21:54:49.652Z,30.87
2019-01-04T21:57:37.482Z,24.13
2019-01-04T22:00:24.374Z,26.30
2019-01-04T22:03:31.535Z,26.67
2019-01-04T22:06:25.814Z,21.13
2019-01-04T22:09:12.569Z,20.80
2019-01-04T22:12:01.002Z,17.87
2019-01-04T22:14:58.998Z,22.93
2019-01-04T22:17:45.943Z,22.67
2019-01-04T22:20:38.330Z,21.50
2019-01-04T22:23:41.924Z,24.23
2019-01-04T22:26:29.667Z,27.53
2019-01-04T22:29:16.610Z,20.30
2019-01-04T22:31:55.192Z,31.57
2019-01-04T22:34:43.124Z,28.87
2019-01-04T22:37:30.324Z,21.50
2019-01-04T22:40:33.625Z,24.77
2019-01-04T22:43:20.998Z,21.20
2019-01-04T22:46:12.962Z,18.43
2019-01-04T22:48:58.353Z,15.77
2019-01-04T22:51:45.044Z,14.30
2019-01-04T22:54:38.223Z,17.37
2019-01-04T22:57:32.930Z,18.80
2019-01-04T23:00:20.629Z,14.17
2019-01-04T23:03:07.979Z,16.10
2019-01-04T23:05:54.853Z,16.70
2019-01-04T23:08:56.015Z,14.60
2019-01-04T23:11:42.855Z,16.73
2019-01-04T23:14:26.908Z,12.53
2019-01-04T23:17:20.319Z,12.77
2019-01-04T23:20:08.615Z,15.70
2019-01-04T23:23:00.943Z,15.23
2019-01-04T23:25:47.852Z,16.53
2019-01-04T23:28:34.851Z,14.00
2019-01-04T23:31:21.510Z,13.37
2019-01-04T23:34:07.247Z,11.23
2019-01-04T23:37:01.251Z,16.50
2019-01-04T23:39:47.844Z,14.17
2019-01-04T23:42:34.463Z,13.57
2019-01-04T23:45:30.710Z,15.73
2019-01-04T23:48:17.142Z,15.30
2019-01-04T23:51:20.586Z,17.60
2019-01-04T23:53:57.225Z,13.87
2019-01-04T23:56:57.315Z,14.73
2019-01-04T23:59:51.112Z,17.80
